Monday, December 5, 2016, 10:36 AM CST
Back to Local

KHDC, Hammond, Hammond Municipal Airport

Location: Hammond, LA, United States Lat: 30.521
Local Time: 10:36 AM CST (16:36 GMT) Lon: -90.418
Time Zone: US/Central Elev: 42 ft

Show me the last for .
Show Coded

Time T Td Feel RH Dir Speed Gust Alt SLP Vis Weather Sky Remarks
2016-12-05 10:15 55 54 - 93 30° 8 - 29.85 - 1 BR OVC003 None
2016-12-05 09:55 55 54 - 93 10° 9 - 29.87 - 1 -RA OVC003 1-hr Precip Total: 0.02"
2016-12-05 09:35 55 54 - 93 20° 5 - 29.88 - 0 -RA OVC003 1-hr Precip Total: 0.01"
2016-12-05 09:15 55 54 - 93 30° 3 - 29.90 - 1 -RA OVC003 None
2016-12-05 08:55 55 54 - 93 60° 3 - 29.90 - 1 -RA OVC003 None
2016-12-05 08:35 55 54 - 93 - Calm - 29.89 - 1 -DZ OVC003 None
2016-12-05 08:15 55 54 - 93 50° 3 - 29.89 - 1 -RA OVC003 None
2016-12-05 07:55 55 54 - 93 - Calm - 29.88 - 1 -RA OVC003 1-hr Precip Total: 0.01"
2016-12-05 07:35 55 54 - 93 - Calm - 29.89 - 3 -RA OVC003 None
2016-12-05 07:15 55 54 - 93 - Calm - 29.88 - 4 BR OVC003 None
2016-12-05 06:55 55 54 - 93 40° 3 - 29.88 - 4 -RA OVC003 None
2016-12-05 06:35 55 54 - 93 80° 6 - 29.87 - 5 -DZ OVC003 None
2016-12-05 06:15 55 54 - 93 60° 3 - 29.88 - 4 BR OVC003 None
2016-12-05 05:55 55 54 - 93 - Calm - 29.88 - 3 -DZ OVC003 None
2016-12-05 05:35 55 54 - 93 40° 3 - 29.88 - 3 BR OVC003 None
2016-12-05 05:15 55 54 - 93 50° 5 - 29.89 - 4 BR OVC003 None
2016-12-05 04:55 55 54 - 93 40° 5 - 29.90 - 3 BR OVC003 None
2016-12-05 04:35 55 52 - 87 60° 5 - 29.90 - 3 BR OVC003 None
2016-12-05 04:15 55 54 - 93 - Calm - 29.91 - 5 BR OVC003 None
2016-12-05 03:55 55 54 - 93 70° 3 - 29.92 - 7 OVC005 None
2016-12-05 03:35 55 52 - 87 70° 5 - 29.92 - 10 OVC005 None
2016-12-05 03:15 55 52 - 87 50° 5 - 29.92 - 10 OVC005 None
2016-12-05 02:55 55 52 - 87 - Calm - 29.94 - 10 OVC005 None
2016-12-05 02:35 55 52 - 87 40° 5 - 29.94 - 10 OVC005 None
2016-12-05 02:15 55 52 - 87 40° 5 - 29.93 - 10 OVC005 None
2016-12-05 01:55 55 52 - 87 30° 3 - 29.92 - 10 OVC005 None
2016-12-05 01:35 55 52 - 87 20° 5 - 29.92 - 10 OVC005 None
2016-12-05 01:15 55 52 - 87 30° 6 - 29.92 - 10 OVC005 None
2016-12-05 00:55 55 52 - 87 20° 6 - 29.92 - 10 OVC005 None
2016-12-05 00:35 55 52 - 87 10° 6 - 29.92 - 10 OVC005 None
2016-12-05 00:15 55 52 - 87 10° 7 - 29.93 - 10 OVC005 None
2016-12-04 23:55 55 54 - 93 40° 7 - 29.93 - 10 OVC005 None
2016-12-04 23:35 55 54 - 93 10° 8 - 29.92 - 10 OVC003 None
2016-12-04 23:15 57 55 - 93 10° 12 - 29.93 - 10 OVC003 None
2016-12-04 22:55 57 55 - 93 10° 5 - 29.95 - 10 OVC003 1-hr Precip Total: 0.01"
2016-12-04 22:35 59 55 - 87 360° 5 - 29.95 - 10 OVC003 1-hr Precip Total: 0.01"
2016-12-04 22:15 59 55 - 87 - Calm - 29.95 - 10 OVC003 None
2016-12-04 21:55 57 55 - 93 - Calm - 29.96 - 10 DZ OVC003 1-hr Precip Total: 0.05"
2016-12-04 21:35 59 55 - 87 - Calm - 29.96 - 7 -RA OVC005 1-hr Precip Total: 0.05"
2016-12-04 21:15 59 55 - 87 10° 3 - 29.98 - 7 -RA BKN005 BKN013 OVC019 1-hr Precip Total: 0.03"
2016-12-04 20:55 59 55 - 87 - Calm - 30.00 - 7 RA BKN005 BKN012 OVC023 1-hr Precip Total: 0.03"
2016-12-04 20:35 59 55 - 87 - Calm - 29.99 - 10 -RA BKN005 BKN027 OVC095 1-hr Precip Total: 0.01"
2016-12-04 20:15 59 55 - 87 - Calm - 29.97 - 10 -RA OVC007 1-hr Precip Total: 0.01"
2016-12-04 19:55 59 55 - 87 - Calm - 29.98 - 10 -RA BKN007 1-hr Precip Total: 0.01"
2016-12-04 19:35 59 55 - 87 110° 5 - 29.96 - 10 RA BKN007 BKN017 OVC100 1-hr Precip Total: 0.01"
2016-12-04 19:15 59 55 - 87 - Calm - 29.98 - 10 RA OVC005 None
2016-12-04 18:55 59 55 - 87 10° 5 - 29.97 - 7 RA OVC005 1-hr Precip Total: 0.07"
2016-12-04 18:35 59 55 - 87 20° 7 - 29.95 - 7 RA BKN005 BKN022 OVC070 1-hr Precip Total: 0.05"
2016-12-04 18:15 59 55 - 87 360° 6 - 29.95 - 10 RA SCT005 BKN095 OVC120 1-hr Precip Total: 0.02"
2016-12-04 17:55 59 55 - 87 20° 6 - 29.96 - 7 RA SCT006 BKN085 OVC095 1-hr Precip Total: 0.12"
2016-12-04 17:35 59 55 - 87 20° 5 - 29.97 - 7 +RA OVC006 1-hr Precip Total: 0.07"
2016-12-04 17:15 59 55 - 87 320° 6 - 29.97 - 10 RA OVC006 1-hr Precip Total: 0.01"
2016-12-04 16:55 59 55 - 87 360° 8 - 29.94 - 10 -RA OVC006 1-hr Precip Total: 0.07"
2016-12-04 16:35 59 55 - 87 360° 8 - 29.94 - 5 RA OVC004 1-hr Precip Total: 0.06"
2016-12-04 16:15 61 57 - 87 340° 7 - 29.95 - 10 RA BKN004 BKN019 OVC065 None
2016-12-04 15:55 61 57 - 87 360° 8 - 29.92 - 10 DZ SCT006 SCT017 OVC065 1-hr Precip Total: 0.01"
2016-12-04 15:35 61 57 - 87 360° 7 - 29.92 - 7 DZ BKN006 BKN012 OVC065 1-hr Precip Total: 0.01"
2016-12-04 15:15 61 57 - 87 360° 9 - 29.92 - 10 DZ SCT006 SCT013 OVC065 None
2016-12-04 14:55 61 59 - 93 350° 8 - 29.92 - 7 DZ BKN006 BKN015 OVC065 1-hr Precip Total: 0.01"
2016-12-04 14:35 63 59 - 88 340° 12 - 29.91 - 10 -DZ OVC006 1-hr Precip Total: 0.01"
2016-12-04 14:15 63 61 - 93 350° 9 - 29.91 - 5 DZ OVC004 1-hr Precip Total: 0.01"
2016-12-04 13:55 63 61 - 93 340° 9 - 29.90 - 2 RA OVC004 1-hr Precip Total: 0.06"
2016-12-04 13:35 63 61 - 93 340° 9 - 29.90 - 4 +DZ OVC004 1-hr Precip Total: 0.02"
2016-12-04 13:15 63 61 - 93 330° 8 - 29.90 - 3 RA OVC004 1-hr Precip Total: 0.01"
2016-12-04 12:55 63 61 - 93 310° 7 - 29.92 - 10 -DZ OVC004 None
2016-12-04 12:35 63 61 - 93 310° 5 - 29.92 - 5 DZ OVC004 None
2016-12-04 12:15 63 61 - 93 300° 8 - 29.92 - 7 OVC004 None
2016-12-04 11:55 63 61 - 93 290° 6 - 29.92 - 7 OVC004 None
2016-12-04 11:35 63 59 - 88 320° 3 - 29.91 - 10 OVC004 None
2016-12-04 11:15 63 61 - 93 320° 6 - 29.90 - 10 BKN004 BKN045 OVC080 None
2016-12-04 10:55 63 59 - 88 - Calm - 29.91 - 10 OVC004 None

Support USWX by starting your Amazon purchase here.